Weather History for Artesia, NM

Change the Weather History Date:

Saturday, August 31, 2013

  Actual Average Record
Temperature  
Mean Temperature 82 °F -  
Max Temperature 96 °F 89 °F 105 °F (1962)
Min Temperature 68 °F 60 °F 51 °F (1987)
Cooling Degree Days 17    
Growing Degree Days 32 (Base 50)    
Moisture  
Dew Point 47 °F    
Average Humidity 31    
Maximum Humidity 49    
Minimum Humidity 17    
Precipitation  
Precipitation 0.00 in - - ()
Sea Level Pressure  
Sea Level Pressure 30.01 in    
Wind  
Wind Speed 7 mph (SSE)    
Max Wind Speed 16 mph    
Max Gust Speed 22 mph    
Visibility 10 miles    
Events      
Averages and records for this station are not official NWS values.
T = Trace of Precipitation, MM = Missing Value Source: NWS Daily Summary

Daily Weather History Graph

Daily Weather History Graph

Search for Another Location

Airport:

Trip Planner

Search our weather history database for the weather conditions in past years. The results will help you decide how hot, cold, wet, or windy it might be!

Date:

Astronomy

Aug. 31, 2013 Rise Set
Actual Time 6:32 AM MDT 7:23 PM MDT
Civil Twilight 6:06 AM MDT 7:48 PM MDT
Nautical Twilight 5:37 AM MDT 8:18 PM MDT
Astronomical Twilight 5:06 AM MDT 8:48 PM MDT
Moon 2:11 AM MDT (8/31) 4:15 PM MDT (8/31)
Length of Visible Light 13h 41m
Length of Day
12h 51m
Waning Crescent, 20% of the Moon is Illuminated
Aug 31
Waning Crescent
Sep 5
New
Sep 12
First Quarter
Sep 19
Full
Sep 26
Last Quarter

Hourly Weather History & Observations

Time (MDT) Temp. Dew Point Humidity Pressure Visibility Wind Dir Wind Speed Gust Speed Precip Events Conditions
12:15 AM 75.2 °F 44.6 °F 34% 30.05 in 10.0 mi SSW 8.1 mph - N/A   Clear
12:35 AM 75.2 °F 46.4 °F 36% 30.05 in 10.0 mi SSW 6.9 mph - N/A   Clear
12:55 AM 73.4 °F 44.6 °F 36% 30.05 in 10.0 mi South 8.1 mph - N/A   Clear
1:15 AM 75.2 °F 46.4 °F 36% 30.05 in 10.0 mi South 6.9 mph - N/A   Clear
1:35 AM 73.4 °F 46.4 °F 38% 30.05 in 10.0 mi South 6.9 mph - N/A   Clear
1:55 AM 71.6 °F 46.4 °F 41% 30.04 in 10.0 mi South 6.9 mph - N/A   Clear
2:15 AM 71.6 °F 46.4 °F 41% 30.04 in 10.0 mi SSE 9.2 mph - N/A   Clear
2:35 AM 71.6 °F 46.4 °F 41% 30.04 in 10.0 mi SSE 8.1 mph - N/A   Clear
2:55 AM 71.6 °F 46.4 °F 41% 30.04 in 10.0 mi South 6.9 mph - N/A   Clear
3:15 AM 71.6 °F 48.2 °F 43% 30.03 in 10.0 mi SSE 6.9 mph - N/A   Clear
3:35 AM 71.6 °F 48.2 °F 43% 30.03 in 10.0 mi SW 5.8 mph - N/A   Clear
3:55 AM 68.0 °F 46.4 °F 46% 30.03 in 10.0 mi SW 4.6 mph - N/A   Clear
4:15 AM 68.0 °F 46.4 °F 46% 30.03 in 10.0 mi SSW 5.8 mph - N/A   Clear
4:35 AM 68.0 °F 46.4 °F 46% 30.03 in 10.0 mi SSW 5.8 mph - N/A   Clear
4:55 AM 68.0 °F 46.4 °F 46% 30.03 in 10.0 mi South 5.8 mph - N/A   Clear
5:15 AM 71.6 °F 48.2 °F 43% 30.03 in 10.0 mi SSE 6.9 mph - N/A   Clear
5:35 AM 69.8 °F 46.4 °F 43% 30.04 in 10.0 mi South 5.8 mph - N/A   Clear
5:55 AM 69.8 °F 46.4 °F 43% 30.04 in 10.0 mi South 6.9 mph - N/A   Clear
6:15 AM 68.0 °F 46.4 °F 46% 30.04 in 10.0 mi SSW 6.9 mph - N/A   Clear
6:35 AM 68.0 °F 46.4 °F 46% 30.05 in 10.0 mi South 5.8 mph - N/A   Clear
6:55 AM 68.0 °F 48.2 °F 49% 30.06 in 10.0 mi SSW 3.5 mph - N/A   Clear
7:15 AM 69.8 °F 48.2 °F 46% 30.06 in 10.0 mi South 4.6 mph - N/A   Clear
7:35 AM 71.6 °F 48.2 °F 43% 30.07 in 10.0 mi WSW 4.6 mph - N/A   Clear
7:55 AM 73.4 °F 50.0 °F 44% 30.07 in 10.0 mi Calm Calm - N/A   Clear
8:15 AM 75.2 °F 50.0 °F 41% 30.07 in 10.0 mi SSW 3.5 mph - N/A   Clear
8:35 AM 77.0 °F 51.8 °F 41% 30.07 in 10.0 mi South 3.5 mph - N/A   Clear
8:55 AM 77.0 °F 51.8 °F 41% 30.07 in 10.0 mi Calm Calm - N/A   Clear
9:15 AM 80.6 °F 51.8 °F 37% 30.07 in 10.0 mi Calm Calm - N/A   Clear
9:35 AM 82.4 °F 51.8 °F 35% 30.07 in 10.0 mi SE 4.6 mph - N/A   Clear
9:55 AM 84.2 °F 50.0 °F 30% 30.07 in 10.0 mi South 8.1 mph - N/A   Clear
10:15 AM 84.2 °F 51.8 °F 33% 30.07 in 10.0 mi SSE 10.4 mph - N/A   Clear
10:35 AM 86.0 °F 51.8 °F 31% 30.07 in 10.0 mi SSE 13.8 mph - N/A   Clear
10:55 AM 87.8 °F 51.8 °F 29% 30.06 in 10.0 mi SSE 13.8 mph 17.3 mph N/A   Clear
11:15 AM 89.6 °F 50.0 °F 26% 30.06 in 10.0 mi SSE 15.0 mph 19.6 mph N/A   Clear
11:35 AM 91.4 °F 50.0 °F 24% 30.05 in 10.0 mi SSE 16.1 mph 20.7 mph N/A   Clear
11:55 AM 91.4 °F 50.0 °F 24% 30.05 in 10.0 mi SE 9.2 mph 16.1 mph N/A   Clear
12:15 PM 91.4 °F 50.0 °F 24% 30.04 in 10.0 mi SSE 10.4 mph 16.1 mph N/A   Clear
12:35 PM 93.2 °F 50.0 °F 23% 30.03 in 10.0 mi SSE 10.4 mph 16.1 mph N/A   Clear
12:55 PM 93.2 °F 48.2 °F 21% 30.02 in 10.0 mi SSE 15.0 mph 21.9 mph N/A   Clear
1:15 PM 93.2 °F 48.2 °F 21% 30.01 in 10.0 mi ESE 5.8 mph 20.7 mph N/A   Clear
1:35 PM 95.0 °F 46.4 °F 19% 30.01 in 10.0 mi ESE 12.7 mph 19.6 mph N/A   Clear
1:55 PM 95.0 °F 46.4 °F 19% 30.00 in 10.0 mi SE 13.8 mph 17.3 mph N/A   Clear
2:15 PM 95.0 °F 46.4 °F 19% 30.00 in 10.0 mi SSE 9.2 mph 19.6 mph N/A   Clear
2:35 PM 95.0 °F 46.4 °F 19% 29.98 in 10.0 mi ESE 10.4 mph - N/A   Clear
2:55 PM 95.0 °F 46.4 °F 19% 29.97 in 10.0 mi SSE 13.8 mph 17.3 mph N/A   Clear
3:15 PM 95.0 °F 46.4 °F 19% 29.97 in 10.0 mi Calm Calm - N/A   Clear
3:35 PM 95.0 °F 46.4 °F 19% 29.96 in 10.0 mi Calm Calm - N/A   Clear
3:55 PM 95.0 °F 46.4 °F 19% 29.95 in 10.0 mi ESE 6.9 mph - N/A   Clear
4:15 PM 95.0 °F 46.4 °F 19% 29.94 in 10.0 mi SSE 5.8 mph - N/A   Clear
4:35 PM 96.8 °F 44.6 °F 17% 29.94 in 10.0 mi ENE 10.4 mph - N/A   Clear
4:55 PM 95.0 °F 44.6 °F 18% 29.93 in 10.0 mi SE 11.5 mph 16.1 mph N/A   Clear
5:15 PM 95.0 °F 44.6 °F 18% 29.93 in 10.0 mi East 8.1 mph - N/A   Clear
5:35 PM 95.0 °F 44.6 °F 18% 29.92 in 10.0 mi SE 10.4 mph - N/A   Clear
5:55 PM 95.0 °F 44.6 °F 18% 29.93 in 10.0 mi SE 11.5 mph - N/A   Clear
6:15 PM 95.0 °F 44.6 °F 18% 29.92 in 10.0 mi ESE 9.2 mph - N/A   Clear
6:35 PM 95.0 °F 44.6 °F 18% 29.92 in 10.0 mi SE 8.1 mph - N/A   Clear
6:55 PM 93.2 °F 44.6 °F 19% 29.92 in 10.0 mi SE 11.5 mph - N/A   Clear
7:15 PM 91.4 °F 44.6 °F 20% 29.93 in 10.0 mi SE 9.2 mph - N/A   Clear
7:35 PM 89.6 °F 46.4 °F 22% 29.93 in 10.0 mi SE 6.9 mph - N/A   Clear
7:55 PM 87.8 °F 46.4 °F 24% 29.94 in 10.0 mi SE 5.8 mph - N/A   Clear
8:15 PM 86.0 °F 46.4 °F 25% 29.95 in 10.0 mi ESE 4.6 mph - N/A   Clear
8:35 PM 84.2 °F 46.4 °F 27% 29.96 in 10.0 mi SE 5.8 mph - N/A   Clear
8:55 PM 82.4 °F 44.6 °F 26% 29.96 in 10.0 mi SE 5.8 mph - N/A   Clear
9:15 PM 82.4 °F 44.6 °F 26% 29.97 in 10.0 mi SE 4.6 mph - N/A   Clear
9:35 PM 80.6 °F 44.6 °F 28% 29.98 in 10.0 mi SE 4.6 mph - N/A   Clear
9:55 PM 80.6 °F 44.6 °F 28% 29.98 in 10.0 mi SSE 3.5 mph - N/A   Clear
10:15 PM 77.0 °F 42.8 °F 29% 29.98 in 10.0 mi South 5.8 mph - N/A   Clear
10:35 PM 77.0 °F 42.8 °F 29% 29.98 in 10.0 mi South 8.1 mph - N/A   Clear
10:55 PM 77.0 °F 42.8 °F 29% 29.99 in 10.0 mi SSE 8.1 mph - N/A   Clear
11:15 PM 77.0 °F 42.8 °F 29% 29.98 in 10.0 mi SSE 5.8 mph - N/A   Clear
11:35 PM 77.0 °F 42.8 °F 29% 29.98 in 10.0 mi South 6.9 mph - N/A   Clear
11:55 PM 75.2 °F 42.8 °F 31% 29.98 in 10.0 mi South 8.1 mph - N/A   Clear